Time;durP1;ratioP1;P1;durP2;ratioP2;P2;SDS_P1;SDS_P2;PMS_P1;PMS_P2;Temp;Humidity;BMP_temperature;BMP_pressure;BME280_temperature;BME280_humidity;BME280_pressure;Samples;Min_cycle;Max_cycle;Signal;HPM_P1;HPM_P2
2023/06/15 00:00:36;;;;;;;7.10;5.80;;;;;;;14.33;86.98;100706.77;104850;1263;72875;-66
2023/06/15 00:03:25;;;;;;;7.30;5.50;;;;;;;14.33;87.16;100703.93;104876;1264;69120;-64
2023/06/15 00:05:54;;;;;;;10.10;6.80;;;;;;;14.34;87.20;100705.16;104880;1265;69207;-63
2023/06/15 00:08:23;;;;;;;7.70;5.60;;;;;;;14.33;87.32;100702.89;104832;1265;75724;-64
2023/06/15 00:10:52;;;;;;;7.80;5.80;;;;;;;14.32;87.29;100705.42;104836;1263;82645;-65
2023/06/15 00:13:20;;;;;;;7.40;5.80;;;;;;;14.31;87.16;100707.88;104840;1263;72698;-67
2023/06/15 00:15:49;;;;;;;7.10;5.30;;;;;;;14.32;87.47;100702.09;104825;1263;69221;-66
2023/06/15 00:18:18;;;;;;;7.60;5.90;;;;;;;14.31;87.49;100703.02;104928;1265;69311;-65
2023/06/15 00:20:47;;;;;;;6.60;5.80;;;;;;;14.29;87.38;100702.52;104875;1265;74449;-66
2023/06/15 00:23:17;;;;;;;6.70;5.60;;;;;;;14.28;87.62;100702.06;104817;1265;83365;-65
2023/06/15 00:25:48;;;;;;;9.50;5.70;;;;;;;14.26;87.55;100702.15;104857;1263;74007;-64
2023/06/15 00:28:16;;;;;;;6.30;5.50;;;;;;;14.23;87.13;100701.26;104806;1262;69129;-65
2023/06/15 00:30:48;;;;;;;6.00;5.30;;;;;;;14.19;87.13;100697.06;104900;1266;69210;-66
2023/06/15 00:33:17;;;;;;;9.00;5.40;;;;;;;14.15;87.13;100695.45;104853;1267;75575;-64
2023/06/15 00:35:45;;;;;;;7.40;5.70;;;;;;;14.13;87.33;100696.98;104815;1265;83400;-64
2023/06/15 00:38:14;;;;;;;8.50;4.90;;;;;;;14.11;87.52;100690.40;104806;1265;73915;-65
2023/06/15 00:40:45;;;;;;;6.60;5.60;;;;;;;14.11;87.66;100690.79;104838;1265;69540;-68
2023/06/15 00:43:17;;;;;;;6.70;6.00;;;;;;;14.10;88.15;100696.78;104748;1263;69210;-64
2023/06/15 00:45:45;;;;;;;7.00;5.80;;;;;;;14.09;88.31;100693.13;104801;1263;75741;-64
2023/06/15 00:48:15;;;;;;;7.10;5.40;;;;;;;14.07;88.35;100694.46;104834;1265;83460;-63
2023/06/15 00:50:47;;;;;;;6.20;5.10;;;;;;;14.04;88.21;100690.55;104849;1263;71838;-63
2023/06/15 00:53:15;;;;;;;10.00;5.80;;;;;;;14.01;88.19;100689.29;104804;1265;69212;-63
2023/06/15 00:55:44;;;;;;;9.50;5.80;;;;;;;14.01;88.49;100688.42;104820;1264;69189;-64
2023/06/15 00:58:13;;;;;;;6.50;5.60;;;;;;;14.01;88.49;100690.00;104801;1263;75858;-64
2023/06/15 01:00:42;;;;;;;7.60;6.10;;;;;;;14.01;88.67;100689.09;104872;1267;84334;-66
2023/06/15 01:03:15;;;;;;;6.70;6.10;;;;;;;14.01;88.77;100691.55;104834;1265;73694;-67
2023/06/15 01:05:44;;;;;;;7.90;6.00;;;;;;;14.00;88.77;100688.63;104835;1265;69109;-64
2023/06/15 01:08:15;;;;;;;7.70;5.70;;;;;;;13.97;88.57;100687.52;104885;1263;69199;-66
2023/06/15 01:10:44;;;;;;;9.70;6.70;;;;;;;13.96;88.73;100686.89;104774;1263;74758;-67
2023/06/15 01:13:13;;;;;;;8.90;6.60;;;;;;;13.95;89.01;100684.67;104879;1265;83402;-63
2023/06/15 01:15:41;;;;;;;10.10;6.10;;;;;;;13.92;89.01;100680.55;104835;1263;73797;-65
2023/06/15 01:18:10;;;;;;;6.80;6.10;;;;;;;13.89;88.89;100678.25;104844;1261;69146;-65
2023/06/15 01:20:40;;;;;;;11.60;6.40;;;;;;;13.87;88.95;100677.99;104897;1263;69237;-65
2023/06/15 01:23:40;;;;;;;8.50;6.30;;;;;;;13.85;89.07;100677.39;104865;1265;75631;-64
2023/06/15 01:26:12;;;;;;;8.40;6.10;;;;;;;13.82;89.16;100681.00;104900;1263;83185;-64
2023/06/15 01:28:45;;;;;;;9.20;6.20;;;;;;;13.79;89.27;100682.02;104782;1263;73918;-67
2023/06/15 01:31:21;;;;;;;9.00;6.10;;;;;;;13.76;89.42;100677.60;104771;1263;69646;-64
2023/06/15 01:33:51;;;;;;;9.00;6.30;;;;;;;13.74;89.23;100674.40;104766;1263;69205;-63
2023/06/15 01:36:23;;;;;;;9.00;6.90;;;;;;;13.70;89.22;100672.98;104764;1263;75920;-66
2023/06/15 01:38:54;;;;;;;9.80;6.30;;;;;;;13.66;89.37;100675.63;104822;1268;83378;-64
2023/06/15 01:41:27;;;;;;;8.70;6.60;;;;;;;13.64;89.56;100675.35;104883;1265;72619;-68
2023/06/15 01:43:59;;;;;;;7.30;6.60;;;;;;;13.66;89.93;100664.92;104910;1266;69223;-65
2023/06/15 01:46:28;;;;;;;7.80;6.40;;;;;;;13.67;90.07;100660.13;104933;1265;69188;-65
2023/06/15 01:48:58;;;;;;;7.90;6.40;;;;;;;13.70;90.61;100655.42;104823;1260;75371;-63
2023/06/15 01:51:31;;;;;;;8.80;6.60;;;;;;;13.72;90.66;100652.71;104844;1266;82640;-65
2023/06/15 01:54:01;;;;;;;8.30;6.90;;;;;;;13.72;90.75;100649.19;104840;1266;73801;-65
2023/06/15 01:56:30;;;;;;;11.60;6.70;;;;;;;13.73;91.11;100645.95;104915;1265;69159;-63
2023/06/15 01:59:02;;;;;;;11.60;7.10;;;;;;;13.75;91.36;100644.48;104954;1267;69201;-69
2023/06/15 02:01:31;;;;;;;11.10;6.30;;;;;;;13.76;91.28;100648.27;104820;1263;75841;-65
2023/06/15 02:03:59;;;;;;;8.50;6.40;;;;;;;13.77;91.34;100650.16;104804;1261;83430;-67
2023/06/15 02:06:28;;;;;;;9.60;6.60;;;;;;;13.76;91.26;100651.80;104745;1263;72942;-66
2023/06/15 02:08:59;;;;;;;14.00;6.80;;;;;;;13.76;91.40;100652.70;104732;1261;69183;-64
2023/06/15 02:11:30;;;;;;;7.00;6.10;;;;;;;13.77;91.67;100659.83;104769;1267;69157;-65
2023/06/15 02:13:59;;;;;;;8.50;6.80;;;;;;;13.79;91.71;100664.98;104774;1265;76063;-66
2023/06/15 02:16:28;;;;;;;7.80;7.00;;;;;;;13.79;91.66;100668.84;104913;1266;82574;-66
2023/06/15 02:19:03;;;;;;;10.10;6.80;;;;;;;13.81;91.91;100667.56;104956;1266;73894;-64
2023/06/15 02:21:31;;;;;;;8.90;6.40;;;;;;;13.82;92.13;100667.15;104837;1265;69273;-64
2023/06/15 02:24:02;;;;;;;10.30;7.20;;;;;;;13.84;92.07;100668.45;104768;1266;69225;-65
2023/06/15 02:26:34;;;;;;;8.00;6.90;;;;;;;13.86;92.09;100669.11;104968;1266;75674;-66
2023/06/15 02:29:02;;;;;;;10.40;7.40;;;;;;;13.84;92.00;100667.73;104844;1265;83424;-64
2023/06/15 02:31:31;;;;;;;8.90;7.30;;;;;;;13.85;92.04;100664.55;104824;1263;72728;-62
2023/06/15 02:34:00;;;;;;;9.60;7.10;;;;;;;13.84;92.04;100663.53;104753;1267;69243;-66
2023/06/15 02:36:30;;;;;;;7.60;6.80;;;;;;;13.84;92.10;100661.61;104977;1266;69257;-64
2023/06/15 02:38:59;;;;;;;8.30;7.00;;;;;;;13.83;92.06;100663.08;104866;1265;75717;-68
2023/06/15 02:41:28;;;;;;;8.60;7.50;;;;;;;13.82;91.96;100667.50;104958;1266;83437;-64
2023/06/15 02:43:57;;;;;;;8.30;6.60;;;;;;;13.82;92.16;100670.14;105001;1266;74003;-64
2023/06/15 02:46:26;;;;;;;8.10;7.00;;;;;;;13.81;92.15;100668.95;104979;1265;69236;-65
2023/06/15 02:48:56;;;;;;;9.00;7.30;;;;;;;13.81;92.34;100666.48;104979;1262;69188;-68
2023/06/15 02:51:25;;;;;;;9.10;6.50;;;;;;;13.82;92.27;100670.13;104999;1267;74695;-65
2023/06/15 02:53:55;;;;;;;9.20;6.60;;;;;;;13.79;92.12;100673.43;105040;1265;83320;-65
2023/06/15 02:56:25;;;;;;;8.40;6.60;;;;;;;13.78;92.07;100678.25;104970;1266;72842;-66
2023/06/15 02:58:54;;;;;;;9.90;7.50;;;;;;;13.75;91.95;100675.02;104974;1266;69649;-66
2023/06/15 03:01:49;;;;;;;9.50;6.60;;;;;;;13.71;91.83;100671.00;104923;1265;69208;-67
2023/06/15 03:04:21;;;;;;;;;;;;;;;13.68;91.75;100676.60;104944;1264;75464;-65
2023/06/15 03:06:51;;;;;;;8.00;6.80;;;;;;;13.64;92.05;100676.75;104785;1263;82572;-69
2023/06/15 03:09:27;;;;;;;10.40;7.90;;;;;;;13.60;91.95;100677.78;104782;1266;73397;-65
2023/06/15 03:11:56;;;;;;;11.10;8.00;;;;;;;13.60;92.22;100671.29;104830;1268;69186;-64
2023/06/15 03:14:30;;;;;;;10.40;7.90;;;;;;;13.60;92.32;100669.02;104843;1266;69245;-63
2023/06/15 03:17:01;;;;;;;12.90;7.90;;;;;;;13.61;92.41;100670.03;104818;1265;75928;-66
2023/06/15 03:19:30;;;;;;;10.20;7.30;;;;;;;13.63;92.52;100676.27;104970;1263;82604;-66
2023/06/15 03:22:00;;;;;;;10.10;7.40;;;;;;;13.66;92.94;100679.31;104969;1261;72626;-64
2023/06/15 03:24:30;;;;;;;11.30;8.10;;;;;;;13.69;93.06;100680.22;104947;1261;69046;-63
2023/06/15 03:27:01;;;;;;;12.20;8.20;;;;;;;13.74;93.33;100681.94;104988;1265;69268;-64
2023/06/15 03:29:36;;;;;;;9.30;7.60;;;;;;;13.77;93.27;100686.00;104962;1261;74635;-65
2023/06/15 03:32:07;;;;;;;9.80;7.40;;;;;;;13.79;93.48;100690.28;104978;1265;83783;-66
2023/06/15 03:34:37;;;;;;;11.60;8.20;;;;;;;13.84;93.69;100693.59;104830;1265;73956;-63
2023/06/15 03:37:08;;;;;;;16.60;9.00;;;;;;;13.88;93.62;100694.10;104941;1266;69061;-67
2023/06/15 03:39:38;;;;;;;8.80;7.60;;;;;;;13.90;93.57;100689.10;104987;1265;69244;-64
2023/06/15 03:42:07;;;;;;;10.90;7.50;;;;;;;13.92;93.56;100687.97;105029;1267;75593;-64
2023/06/15 03:44:36;;;;;;;10.00;7.20;;;;;;;13.93;93.39;100690.37;104979;1266;83090;-65
2023/06/15 03:47:13;;;;;;;8.60;7.60;;;;;;;13.93;93.24;100686.82;104831;1263;72757;-66
2023/06/15 03:49:42;;;;;;;9.70;8.00;;;;;;;13.95;93.43;100688.00;104866;1274;69231;-66
2023/06/15 03:52:11;;;;;;;8.70;7.80;;;;;;;13.96;93.23;100691.25;104966;1261;69207;-65
2023/06/15 03:54:42;;;;;;;10.50;8.40;;;;;;;13.98;93.11;100689.92;104961;1261;76040;-67
2023/06/15 03:57:10;;;;;;;11.60;7.60;;;;;;;14.00;92.90;100689.89;104917;1265;83387;-65
2023/06/15 03:59:40;;;;;;;10.50;8.00;;;;;;;14.02;93.13;100689.40;104772;1261;72853;-66
2023/06/15 04:02:08;;;;;;;11.00;8.10;;;;;;;14.07;93.33;100695.68;104780;1266;69302;-64
2023/06/15 04:04:39;;;;;;;11.00;8.90;;;;;;;14.09;93.28;100694.92;104927;1266;69212;-65
2023/06/15 04:07:09;;;;;;;11.20;8.50;;;;;;;14.10;93.15;100694.52;104858;1271;75830;-65
2023/06/15 04:09:38;;;;;;;12.00;8.00;;;;;;;14.11;92.88;100695.33;104949;1264;82558;-66
2023/06/15 04:12:07;;;;;;;10.10;7.50;;;;;;;14.15;93.13;100695.86;104762;1266;73708;-65
2023/06/15 04:14:35;;;;;;;10.80;8.60;;;;;;;14.20;93.34;100700.00;104788;1269;69187;-66
2023/06/15 04:17:05;;;;;;;14.10;8.30;;;;;;;14.23;93.20;100697.59;104932;1266;69104;-68
2023/06/15 04:19:33;;;;;;;12.00;8.20;;;;;;;14.25;92.99;100699.39;104773;1267;75225;-65
2023/06/15 04:22:02;;;;;;;12.30;8.60;;;;;;;14.29;92.98;100696.57;105028;1267;83276;-67
2023/06/15 04:24:32;;;;;;;10.60;8.40;;;;;;;14.32;92.94;100697.65;104806;1267;72668;-65
2023/06/15 04:27:01;;;;;;;11.00;8.80;;;;;;;14.35;92.85;100696.46;104943;1266;69221;-64
2023/06/15 04:29:30;;;;;;;10.40;8.50;;;;;;;14.36;92.68;100696.77;104828;1265;69071;-66
2023/06/15 04:31:59;;;;;;;;;;;;;;;14.37;92.71;100697.27;104981;1273;75381;-65
2023/06/15 04:34:31;;;;;;;12.00;8.90;;;;;;;14.40;93.23;100697.81;104804;1267;83511;-64
2023/06/15 04:37:01;;;;;;;11.00;9.10;;;;;;;14.44;93.12;100697.08;104931;1265;73544;-66
2023/06/15 04:39:34;;;;;;;10.30;9.20;;;;;;;14.48;93.11;100694.41;104781;1267;69147;-61
2023/06/15 04:42:04;;;;;;;11.40;9.40;;;;;;;14.55;93.13;100695.54;104876;1260;69202;-63
2023/06/15 04:44:35;;;;;;;12.50;9.50;;;;;;;14.62;93.40;100693.10;104767;1266;75811;-64
2023/06/15 04:47:05;;;;;;;13.40;9.90;;;;;;;14.68;93.37;100696.83;104712;1267;83235;-63
2023/06/15 04:49:34;;;;;;;12.40;9.20;;;;;;;14.75;93.35;100700.35;104922;1266;73781;-66
2023/06/15 04:52:03;;;;;;;14.00;10.40;;;;;;;14.81;93.11;100697.77;104928;1272;69208;-66
2023/06/15 04:54:38;;;;;;;15.20;9.90;;;;;;;14.86;92.91;100700.52;104986;1266;69196;-68
2023/06/15 04:57:08;;;;;;;11.50;9.90;;;;;;;14.89;92.51;100702.48;104872;1265;75710;-62
2023/06/15 04:59:38;;;;;;;12.70;10.60;;;;;;;14.90;92.15;100701.69;104900;1265;82615;-63
2023/06/15 05:02:08;;;;;;;12.80;9.80;;;;;;;14.90;91.80;100701.67;104887;1272;74012;-63
2023/06/15 05:04:39;;;;;;;13.50;10.10;;;;;;;14.91;91.72;100705.91;104766;1261;69067;-65
2023/06/15 05:07:07;;;;;;;11.20;9.70;;;;;;;14.92;91.62;100704.94;104974;1261;69206;-62
2023/06/15 05:09:42;;;;;;;12.20;9.80;;;;;;;14.96;91.56;100707.21;104890;1261;76557;-62
2023/06/15 05:12:17;;;;;;;13.50;9.40;;;;;;;15.02;91.55;100706.94;104881;1267;83480;-62
2023/06/15 05:14:46;;;;;;;11.00;9.50;;;;;;;15.07;91.36;100712.48;104800;1263;73748;-65
2023/06/15 05:17:15;;;;;;;12.80;10.60;;;;;;;15.08;91.16;100711.35;105072;1264;69184;-62
2023/06/15 05:19:43;;;;;;;13.80;9.80;;;;;;;15.11;91.26;100712.27;104810;1273;69203;-62
2023/06/15 05:22:12;;;;;;;10.80;9.70;;;;;;;15.15;91.29;100718.05;104897;1265;75858;-64
2023/06/15 05:24:41;;;;;;;11.30;9.70;;;;;;;15.16;90.90;100716.77;104906;1266;83893;-61
2023/06/15 05:27:10;;;;;;;12.20;9.40;;;;;;;15.15;90.89;100713.81;105033;1261;73579;-62
2023/06/15 05:29:41;;;;;;;12.20;10.40;;;;;;;15.15;90.78;100717.53;104750;1267;69257;-62
2023/06/15 05:32:10;;;;;;;12.20;9.50;;;;;;;15.15;90.91;100721.56;105044;1265;69259;-62
2023/06/15 05:34:39;;;;;;;13.20;9.80;;;;;;;15.16;90.90;100723.81;104914;1261;75644;-60
2023/06/15 05:37:08;;;;;;;15.60;11.30;;;;;;;15.16;90.89;100727.34;104810;1260;83823;-61
2023/06/15 05:39:40;;;;;;;12.60;11.20;;;;;;;15.16;90.94;100730.15;104795;1263;72702;-59
2023/06/15 05:42:10;;;;;;;13.20;11.20;;;;;;;15.15;90.93;100735.66;104913;1267;69228;-60
2023/06/15 05:44:41;;;;;;;13.00;11.60;;;;;;;15.12;90.81;100733.53;104937;1266;69144;-60
2023/06/15 05:47:10;;;;;;;15.00;12.70;;;;;;;15.09;90.78;100732.93;104907;1266;73871;-61
2023/06/15 05:49:41;;;;;;;15.80;13.00;;;;;;;15.07;90.52;100733.23;104851;1267;83393;-61
2023/06/15 05:52:10;;;;;;;15.20;12.10;;;;;;;15.06;90.55;100732.09;104896;1261;73191;-60
2023/06/15 05:54:39;;;;;;;13.60;11.90;;;;;;;15.08;90.77;100730.73;104779;1260;69215;-59
2023/06/15 05:57:10;;;;;;;;;;;;;;;15.09;90.85;100732.78;104741;1267;257032;-60
2023/06/15 05:59:38;;;;;;;13.00;11.50;;;;;;;15.10;90.92;100730.77;104901;1267;75482;-62
2023/06/15 06:02:08;;;;;;;16.30;13.00;;;;;;;15.12;91.03;100732.77;104976;1261;82553;-61
2023/06/15 06:04:37;;;;;;;15.10;12.00;;;;;;;15.09;90.60;100731.36;104961;1264;73592;-59
2023/06/15 06:07:06;;;;;;;14.20;12.40;;;;;;;15.07;90.73;100734.66;104782;1261;69066;-60
2023/06/15 06:09:37;;;;;;;15.50;12.70;;;;;;;15.05;90.77;100735.09;104899;1260;69209;-58
2023/06/15 06:12:07;;;;;;;14.70;12.40;;;;;;;15.04;90.86;100739.23;104941;1267;74739;-60
2023/06/15 06:14:36;;;;;;;15.10;12.50;;;;;;;15.00;90.73;100741.88;105050;1261;83359;-60
2023/06/15 06:17:05;;;;;;;14.10;12.10;;;;;;;14.97;91.01;100744.48;104904;1261;73037;-57
2023/06/15 06:19:33;;;;;;;17.80;14.30;;;;;;;14.96;91.04;100744.88;105028;1265;69119;-59
2023/06/15 06:22:02;;;;;;;15.80;13.30;;;;;;;14.95;91.10;100747.23;104864;1266;69120;-57
2023/06/15 06:24:32;;;;;;;15.90;13.80;;;;;;;14.92;91.05;100748.09;105180;1260;75471;-58
2023/06/15 06:27:01;;;;;;;17.60;14.40;;;;;;;14.90;91.15;100748.34;104863;1264;83297;-57
2023/06/15 06:29:29;;;;;;;15.20;13.60;;;;;;;14.89;91.35;100746.09;104984;1266;73754;-58
2023/06/15 06:31:58;;;;;;;15.50;13.90;;;;;;;14.91;91.44;100746.88;104851;1267;69170;-58
2023/06/15 06:34:26;;;;;;;18.60;13.90;;;;;;;14.90;91.38;100750.08;104879;1261;69109;-56
2023/06/15 06:36:54;;;;;;;16.00;14.40;;;;;;;14.93;91.70;100753.29;104823;1261;74788;-58
2023/06/15 06:39:28;;;;;;;16.90;15.10;;;;;;;14.96;91.85;100756.13;105057;1266;83402;-57
2023/06/15 06:41:56;;;;;;;17.40;14.80;;;;;;;15.01;91.91;100749.77;104861;1266;73909;-58
2023/06/15 06:44:32;;;;;;;18.10;14.70;;;;;;;15.02;91.94;100748.83;104785;1261;69525;-58
2023/06/15 06:47:01;;;;;;;20.40;15.00;;;;;;;15.04;92.06;100753.30;104892;1267;69200;-58
2023/06/15 06:49:29;;;;;;;17.10;15.30;;;;;;;15.05;91.98;100754.10;104971;1261;75269;-58
2023/06/15 06:51:58;;;;;;;18.10;15.20;;;;;;;15.08;92.26;100749.18;104899;1261;83775;-58
2023/06/15 06:54:26;;;;;;;17.00;15.10;;;;;;;15.12;92.16;100746.73;104909;1266;73486;-56
2023/06/15 06:56:55;;;;;;;16.90;14.90;;;;;;;15.14;92.14;100748.92;105063;1261;69223;-59
2023/06/15 06:59:23;;;;;;;19.60;14.90;;;;;;;15.16;92.30;100751.44;104956;1274;69237;-59
2023/06/15 07:02:11;;;;;;;17.00;15.30;;;;;;;15.19;92.20;100750.42;104818;1266;75407;-59
2023/06/15 07:04:40;;;;;;;18.10;15.00;;;;;;;15.19;92.18;100748.30;104956;1267;83615;-58
2023/06/15 07:07:09;;;;;;;16.80;15.10;;;;;;;15.20;92.23;100750.02;105070;1266;73640;-57
2023/06/15 07:09:38;;;;;;;17.60;15.80;;;;;;;15.20;92.46;100751.23;104842;1264;69180;-59
2023/06/15 07:12:08;;;;;;;16.60;14.90;;;;;;;15.18;92.35;100757.13;104937;1267;69247;-59
2023/06/15 07:14:36;;;;;;;18.30;16.20;;;;;;;15.16;92.17;100749.34;104972;1264;74840;-59
2023/06/15 07:17:05;;;;;;;17.40;15.50;;;;;;;15.14;92.13;100750.45;104896;1260;83941;-61
2023/06/15 07:19:34;;;;;;;19.80;15.50;;;;;;;15.14;92.19;100750.48;105010;1265;74042;-63
2023/06/15 07:22:03;;;;;;;17.80;15.70;;;;;;;15.15;92.17;100747.77;104868;1266;69212;-63
2023/06/15 07:24:31;;;;;;;20.40;15.80;;;;;;;15.14;92.21;100750.16;104980;1265;69229;-64
2023/06/15 07:27:00;;;;;;;17.60;15.00;;;;;;;15.14;92.18;100748.73;104845;1260;75945;-64
2023/06/15 07:29:29;;;;;;;17.90;16.00;;;;;;;15.14;92.17;100750.51;105083;1265;83578;-63
2023/06/15 07:31:57;;;;;;;17.00;14.70;;;;;;;15.16;92.59;100747.02;105287;1261;73718;-64
2023/06/15 07:34:26;;;;;;;17.80;15.60;;;;;;;15.22;92.72;100744.48;105091;1266;69212;-60
2023/06/15 07:36:55;;;;;;;17.40;15.60;;;;;;;15.28;92.72;100746.80;104987;1260;69214;-61
2023/06/15 07:39:23;;;;;;;16.90;15.00;;;;;;;15.38;92.98;100748.20;105063;1260;74634;-59
2023/06/15 07:41:52;;;;;;;17.70;15.80;;;;;;;15.53;93.26;100752.89;104840;1265;83467;-60
2023/06/15 07:44:20;;;;;;;15.60;14.10;;;;;;;15.65;93.30;100754.02;104947;1261;73855;-60
2023/06/15 07:46:49;;;;;;;16.60;14.90;;;;;;;15.80;93.38;100754.15;104968;1260;69102;-60
2023/06/15 07:49:18;;;;;;;15.80;14.20;;;;;;;15.90;92.73;100757.30;104980;1264;69249;-60
2023/06/15 07:52:00;;;;;;;14.80;13.30;;;;;;;15.99;92.43;100760.19;104939;1260;75900;-58
2023/06/15 07:54:38;;;;;;;13.80;12.40;;;;;;;16.09;91.77;100764.25;104789;1261;83288;-60
2023/06/15 07:57:06;;;;;;;16.40;11.90;;;;;;;16.14;91.28;100767.48;104851;1261;72699;-60
2023/06/15 07:59:34;;;;;;;14.60;13.00;;;;;;;16.20;91.03;100763.26;104870;1265;69173;-59
2023/06/15 08:02:03;;;;;;;15.00;13.00;;;;;;;16.30;91.19;100760.25;105042;1265;69107;-61
2023/06/15 08:04:31;;;;;;;16.00;14.00;;;;;;;16.44;91.21;100760.39;104910;1260;76176;-61
2023/06/15 08:07:00;;;;;;;17.40;14.10;;;;;;;16.55;91.13;100762.73;104964;1265;83544;-63
2023/06/15 08:09:29;;;;;;;16.40;14.20;;;;;;;16.64;90.60;100762.92;104997;1265;73763;-61
2023/06/15 08:11:57;;;;;;;15.80;14.00;;;;;;;16.75;90.49;100763.90;104855;1261;69212;-62
2023/06/15 08:14:26;;;;;;;15.30;12.90;;;;;;;16.79;89.57;100765.98;105051;1261;69061;-61
2023/06/15 08:16:55;;;;;;;15.30;12.70;;;;;;;16.83;89.27;100766.15;104968;1260;74709;-58
2023/06/15 08:19:24;;;;;;;16.00;13.20;;;;;;;16.89;89.15;100764.92;105237;1265;83621;-60
2023/06/15 08:21:52;;;;;;;17.10;14.80;;;;;;;16.95;88.81;100767.22;105190;1260;72781;-61
2023/06/15 08:24:20;;;;;;;16.60;14.30;;;;;;;17.01;88.70;100766.85;105216;1261;69278;-63
2023/06/15 08:26:49;;;;;;;15.00;12.90;;;;;;;17.09;88.41;100763.07;105028;1264;69156;-63
2023/06/15 08:29:18;;;;;;;15.30;13.60;;;;;;;17.10;87.33;100758.90;104975;1264;74744;-64
2023/06/15 08:31:51;;;;;;;14.50;12.50;;;;;;;17.14;87.30;100762.23;105084;1260;82698;-62
2023/06/15 08:34:20;;;;;;;14.40;13.00;;;;;;;17.24;87.08;100760.45;105013;1259;73958;-61
2023/06/15 08:36:49;;;;;;;14.40;12.60;;;;;;;17.32;86.47;100762.20;104961;1261;69240;-66
2023/06/15 08:39:18;;;;;;;13.90;12.50;;;;;;;17.41;86.17;100760.83;105074;1261;69229;-62
2023/06/15 08:41:47;;;;;;;13.80;12.30;;;;;;;17.54;86.30;100763.18;105041;1260;75674;-68
2023/06/15 08:44:17;;;;;;;15.00;13.20;;;;;;;17.70;86.09;100758.87;104994;1264;83443;-62
2023/06/15 08:46:45;;;;;;;14.60;12.30;;;;;;;17.83;85.63;100758.10;104962;1260;73861;-60
2023/06/15 08:49:14;;;;;;;14.30;12.90;;;;;;;17.95;85.29;100757.73;104908;1264;69122;-61
2023/06/15 08:51:44;;;;;;;13.90;12.40;;;;;;;18.03;85.06;100758.11;105054;1260;69216;-59
2023/06/15 08:54:13;;;;;;;12.90;11.60;;;;;;;18.10;84.87;100757.14;104888;1261;74657;-60
2023/06/15 08:56:41;;;;;;;12.40;11.10;;;;;;;18.18;84.46;100754.15;105038;1264;83296;-61
2023/06/15 08:59:10;;;;;;;13.30;11.30;;;;;;;18.22;84.03;100747.89;105110;1260;73678;-61
2023/06/15 09:01:41;;;;;;;12.30;11.00;;;;;;;18.28;83.89;100748.42;105060;1260;69218;-61
2023/06/15 09:04:10;;;;;;;14.40;10.90;;;;;;;18.32;83.62;100744.44;105057;1260;69205;-61
2023/06/15 09:06:39;;;;;;;11.30;10.10;;;;;;;18.34;83.26;100745.35;105060;1260;75628;-61
2023/06/15 09:09:09;;;;;;;11.50;9.90;;;;;;;18.34;82.67;100746.27;104823;1259;82476;-62
2023/06/15 09:11:40;;;;;;;11.40;10.30;;;;;;;18.34;82.60;100745.88;105136;1264;73022;-62
2023/06/15 09:14:11;;;;;;;14.10;10.20;;;;;;;18.36;82.33;100742.77;104987;1260;69136;-62
2023/06/15 09:16:41;;;;;;;10.90;9.80;;;;;;;18.42;82.33;100743.12;105160;1260;69187;-62
2023/06/15 09:19:16;;;;;;;10.80;9.70;;;;;;;18.53;82.55;100742.18;105115;1264;75025;-63
2023/06/15 09:21:52;;;;;;;10.80;9.00;;;;;;;18.68;82.25;100741.74;105111;1264;83104;-60
2023/06/15 09:24:22;;;;;;;12.70;9.60;;;;;;;18.82;81.64;100742.08;105106;1264;72787;-61
2023/06/15 09:26:51;;;;;;;11.50;9.90;;;;;;;18.92;80.91;100740.20;105097;1260;69224;-61
2023/06/15 09:29:20;;;;;;;8.70;7.80;;;;;;;19.01;80.64;100738.05;104971;1267;69140;-61
2023/06/15 09:31:48;;;;;;;10.00;8.50;;;;;;;19.11;80.25;100738.05;104983;1260;75239;-61
2023/06/15 09:34:16;;;;;;;9.50;8.30;;;;;;;19.21;80.13;100734.34;105163;1264;83492;-61
2023/06/15 09:36:50;;;;;;;8.50;7.70;;;;;;;19.29;79.78;100733.27;104955;1264;73786;-61
2023/06/15 09:39:22;;;;;;;11.70;9.20;;;;;;;19.39;79.54;100725.86;104972;1262;69226;-61
2023/06/15 09:41:58;;;;;;;9.70;8.30;;;;;;;19.52;79.31;100723.23;105059;1260;69088;-61
2023/06/15 09:44:27;;;;;;;8.80;8.00;;;;;;;19.71;78.99;100721.02;105232;1261;75678;-60
2023/06/15 09:47:00;;;;;;;8.80;7.90;;;;;;;19.91;78.82;100719.46;105042;1264;83860;-61
2023/06/15 09:49:30;;;;;;;10.40;8.80;;;;;;;20.16;78.72;100710.05;105121;1264;73127;-58
2023/06/15 09:52:00;;;;;;;9.80;8.60;;;;;;;20.39;78.02;100712.41;105129;1259;69024;-59
2023/06/15 09:54:30;;;;;;;9.60;6.50;;;;;;;20.59;77.76;100708.67;105195;1264;69183;-57
2023/06/15 09:57:01;;;;;;;7.30;6.00;;;;;;;20.79;76.67;100703.64;104893;1266;75744;-58
2023/06/15 09:59:30;;;;;;;7.60;6.20;;;;;;;21.03;76.56;100703.40;105078;1260;81593;-58
2023/06/15 10:02:00;;;;;;;6.50;5.70;;;;;;;21.35;75.83;100700.79;105049;1260;72656;-60
2023/06/15 10:04:32;;;;;;;6.80;5.80;;;;;;;21.62;74.55;100698.04;105020;1260;69041;-61
2023/06/15 10:07:03;;;;;;;5.90;4.80;;;;;;;21.66;72.82;100692.89;105028;1260;69560;-62
2023/06/15 10:09:44;;;;;;;7.40;4.50;;;;;;;21.69;72.47;100693.73;105104;1260;74629;-64
2023/06/15 10:12:19;;;;;;;10.10;4.60;;;;;;;21.80;71.49;100687.14;104975;1264;83264;-62
2023/06/15 10:15:03;;;;;;;6.70;4.40;;;;;;;21.96;71.12;100683.75;105011;1259;73390;-65
2023/06/15 10:17:35;;;;;;;6.40;4.00;;;;;;;22.08;70.08;100679.45;104968;1264;69246;-62
2023/06/15 10:20:08;;;;;;;5.90;3.80;;;;;;;22.22;69.84;100679.88;105008;1264;69232;-62
2023/06/15 10:23:04;;;;;;;7.60;3.40;;;;;;;22.39;68.45;100683.16;105007;1260;75964;-62
2023/06/15 10:25:32;;;;;;;6.90;3.50;;;;;;;22.59;67.65;100681.15;104875;1259;83459;-67
2023/06/15 10:28:09;;;;;;;6.30;3.80;;;;;;;22.76;67.02;100680.98;104899;1260;73894;-63
2023/06/15 10:31:16;;;;;;;6.90;3.50;;;;;;;22.90;66.16;100680.16;104907;1260;69100;-62
2023/06/15 10:33:52;;;;;;;3.90;3.40;;;;;;;23.12;65.02;100680.92;104882;1264;69243;-64
2023/06/15 10:36:27;;;;;;;5.70;3.50;;;;;;;23.27;63.97;100676.80;105010;1260;75832;-63
2023/06/15 10:39:38;;;;;;;5.50;4.10;;;;;;;23.46;63.85;100669.90;104972;1260;82613;-62
2023/06/15 10:42:08;;;;;;;6.80;4.70;;;;;;;23.58;63.31;100667.16;104755;1264;73226;-63
2023/06/15 10:44:36;;;;;;;5.90;4.10;;;;;;;23.88;63.06;100668.88;104949;1262;69200;-63
2023/06/15 10:47:08;;;;;;;7.40;4.90;;;;;;;24.30;62.49;100669.94;104911;1264;69151;-62
2023/06/15 10:49:37;;;;;;;6.20;3.90;;;;;;;24.55;60.58;100666.40;104910;1264;74822;-60
2023/06/15 10:52:05;;;;;;;6.80;4.80;;;;;;;24.54;59.98;100669.95;104984;1260;82580;-60
2023/06/15 10:54:35;;;;;;;6.40;4.00;;;;;;;24.72;60.35;100668.39;104978;1259;72801;-62
2023/06/15 10:57:06;;;;;;;9.20;4.10;;;;;;;24.76;59.35;100669.53;104984;1259;69130;-62
2023/06/15 10:59:39;;;;;;;3.80;3.50;;;;;;;24.85;58.50;100669.91;105016;1260;69201;-66
2023/06/15 11:02:31;;;;;;;4.70;3.70;;;;;;;25.04;57.43;100670.09;105004;1260;75781;-63
2023/06/15 11:05:00;;;;;;;3.80;3.10;;;;;;;25.49;57.22;100667.11;104994;1259;82816;-61
2023/06/15 11:07:30;;;;;;;4.40;3.00;;;;;;;25.97;56.49;100656.95;105026;1260;73888;-61
2023/06/15 11:10:04;;;;;;;4.10;3.10;;;;;;;26.43;55.00;100652.59;104823;1260;69212;-61
2023/06/15 11:12:41;;;;;;;4.60;3.00;;;;;;;26.82;54.31;100651.34;104819;1266;69113;-62
2023/06/15 11:15:13;;;;;;;4.20;3.00;;;;;;;27.21;53.97;100650.29;104915;1265;74323;-64
2023/06/15 11:17:58;;;;;;;4.30;3.00;;;;;;;27.17;52.64;100651.91;104955;1263;82417;-67
2023/06/15 11:20:59;;;;;;;8.10;3.20;;;;;;;26.90;51.10;100651.95;104932;1261;73722;-63
2023/06/15 11:23:32;;;;;;;6.30;3.20;;;;;;;26.49;50.75;100650.73;104926;1260;69110;-65
2023/06/15 11:26:01;;;;;;;4.30;2.90;;;;;;;26.50;50.83;100646.33;104932;1264;69151;-61